createdAt,value
2023-02-21T00:00:19.503Z,8.21
2023-02-21T00:03:06.513Z,8.19
2023-02-21T00:05:52.751Z,8.24
2023-02-21T00:08:38.687Z,8.17
2023-02-21T00:11:25.099Z,8.19
2023-02-21T00:14:11.387Z,8.20
2023-02-21T00:16:57.792Z,8.14
2023-02-21T00:19:44.106Z,8.12
2023-02-21T00:22:30.328Z,8.10
2023-02-21T00:25:16.522Z,8.03
2023-02-21T00:28:02.959Z,8.07
2023-02-21T00:30:49.302Z,8.06
2023-02-21T00:33:35.785Z,8.00
2023-02-21T00:36:23.485Z,7.91
2023-02-21T00:39:09.745Z,7.89
2023-02-21T00:41:56.021Z,7.74
2023-02-21T00:44:42.469Z,7.72
2023-02-21T00:47:28.635Z,7.65
2023-02-21T00:50:14.903Z,7.53
2023-02-21T00:53:01.330Z,7.52
2023-02-21T00:55:47.533Z,7.49
2023-02-21T00:58:33.743Z,7.45
2023-02-21T01:01:19.769Z,7.44
2023-02-21T01:04:06.512Z,7.50
2023-02-21T01:06:52.946Z,7.51
2023-02-21T01:09:39.214Z,7.51
2023-02-21T01:12:25.349Z,7.60
2023-02-21T01:15:11.419Z,7.49
2023-02-21T01:17:57.650Z,7.61
2023-02-21T01:20:43.923Z,7.59
2023-02-21T01:23:30.321Z,7.62
2023-02-21T01:26:16.455Z,7.68
2023-02-21T01:29:02.827Z,7.78
2023-02-21T01:31:50.922Z,7.76
2023-02-21T01:34:37.020Z,7.84
2023-02-21T01:37:22.822Z,7.82
2023-02-21T01:40:08.955Z,7.82
2023-02-21T01:42:55.189Z,7.85
2023-02-21T01:45:41.453Z,7.91
2023-02-21T01:48:33.807Z,7.93
2023-02-21T01:51:21.655Z,8.03
2023-02-21T01:54:07.994Z,7.99
2023-02-21T01:56:54.201Z,8.01
2023-02-21T01:59:42.859Z,8.03
2023-02-21T02:02:47.575Z,8.02
2023-02-21T02:05:33.862Z,8.02
2023-02-21T02:08:19.878Z,8.03
2023-02-21T02:11:16.627Z,8.05
2023-02-21T02:14:02.991Z,8.05
2023-02-21T02:16:49.447Z,8.05
2023-02-21T02:19:55.360Z,8.14
2023-02-21T02:22:25.745Z,8.09
2023-02-21T02:25:11.455Z,8.14
2023-02-21T02:27:55.461Z,8.17
2023-02-21T02:31:10.225Z,8.19
2023-02-21T02:34:14.344Z,8.19
2023-02-21T02:36:52.157Z,8.27
2023-02-21T02:39:33.439Z,8.25
2023-02-21T02:42:12.950Z,8.30
2023-02-21T02:44:48.768Z,8.34
2023-02-21T02:47:31.435Z,8.33
2023-02-21T02:50:00.779Z,8.33
2023-02-21T02:52:28.497Z,8.32
2023-02-21T02:55:02.118Z,8.36
2023-02-21T02:57:40.745Z,8.34
2023-02-21T03:00:10.919Z,8.36
2023-02-21T03:03:07.622Z,8.39
2023-02-21T03:05:53.830Z,8.39
2023-02-21T03:08:33.800Z,8.40
2023-02-21T03:11:15.346Z,8.30
2023-02-21T03:14:13.715Z,8.30
2023-02-21T03:16:48.372Z,8.26
2023-02-21T03:19:24.797Z,8.20
2023-02-21T03:22:02.208Z,8.25
2023-02-21T03:24:31.438Z,8.29
2023-02-21T03:27:05.013Z,8.26
2023-02-21T03:29:41.954Z,8.23
2023-02-21T03:32:14.091Z,8.23
2023-02-21T03:34:43.543Z,8.27
2023-02-21T03:37:31.292Z,8.30
2023-02-21T03:39:59.555Z,8.34
2023-02-21T03:42:27.298Z,8.33
2023-02-21T03:44:55.237Z,8.35
2023-02-21T03:47:23.505Z,8.36
2023-02-21T03:49:51.116Z,8.34
2023-02-21T03:52:19.304Z,8.34
2023-02-21T03:54:47.111Z,8.32
2023-02-21T03:57:18.113Z,8.40
2023-02-21T03:59:47.603Z,8.39
2023-02-21T04:02:16.220Z,8.44
2023-02-21T04:04:43.791Z,8.50
2023-02-21T04:07:16.670Z,8.52
2023-02-21T04:09:45.019Z,8.49
2023-02-21T04:12:16.891Z,8.45
2023-02-21T04:14:44.858Z,8.49
2023-02-21T04:17:12.677Z,8.54
2023-02-21T04:19:40.909Z,8.53
2023-02-21T04:22:08.488Z,8.51
2023-02-21T04:24:36.024Z,8.50
2023-02-21T04:27:03.692Z,8.54
2023-02-21T04:29:35.267Z,8.54
2023-02-21T04:32:03.405Z,8.63
2023-02-21T04:34:32.228Z,8.49
2023-02-21T04:37:00.044Z,8.47
2023-02-21T04:39:27.817Z,8.49
2023-02-21T04:41:55.383Z,8.60
2023-02-21T04:44:23.007Z,8.57
2023-02-21T04:46:50.520Z,8.56
2023-02-21T04:49:18.944Z,8.59
2023-02-21T04:51:46.532Z,8.57
2023-02-21T04:54:14.203Z,8.58
2023-02-21T04:56:41.776Z,8.61
2023-02-21T04:59:09.306Z,8.63
2023-02-21T05:01:36.911Z,8.62
2023-02-21T05:04:05.010Z,8.57
2023-02-21T05:06:33.770Z,8.61
2023-02-21T05:09:01.342Z,8.65
2023-02-21T05:11:28.897Z,8.66
2023-02-21T05:13:56.356Z,8.67
2023-02-21T05:16:23.951Z,8.67
2023-02-21T05:18:51.479Z,8.59
2023-02-21T05:21:20.298Z,8.65
2023-02-21T05:23:57.136Z,8.66
2023-02-21T05:26:28.036Z,8.68
2023-02-21T05:28:58.470Z,8.70
2023-02-21T05:31:27.074Z,8.59
2023-02-21T05:33:54.655Z,8.60
2023-02-21T05:36:24.621Z,8.59
2023-02-21T05:38:54.674Z,8.60
2023-02-21T05:41:22.919Z,8.61
2023-02-21T05:43:50.539Z,8.57
2023-02-21T05:46:52.528Z,8.62
2023-02-21T05:49:20.291Z,8.63
2023-02-21T05:51:47.948Z,8.60
2023-02-21T05:54:20.554Z,8.66
2023-02-21T05:56:51.680Z,8.65
2023-02-21T05:59:21.438Z,8.57
2023-02-21T06:01:50.277Z,8.62
2023-02-21T06:04:18.273Z,8.60
2023-02-21T06:06:45.972Z,8.59
2023-02-21T06:09:13.590Z,8.66
2023-02-21T06:11:41.653Z,8.63
2023-02-21T06:14:15.625Z,8.56
2023-02-21T06:16:44.422Z,8.58
2023-02-21T06:19:13.135Z,8.65
2023-02-21T06:21:42.230Z,8.63
2023-02-21T06:24:10.696Z,8.71
2023-02-21T06:26:39.420Z,8.70
2023-02-21T06:29:07.805Z,8.70
2023-02-21T06:31:36.492Z,8.71
2023-02-21T06:34:04.636Z,8.67
2023-02-21T06:36:32.393Z,8.68
2023-02-21T06:38:59.951Z,8.72
2023-02-21T06:41:31.444Z,8.69
2023-02-21T06:44:00.229Z,8.69
2023-02-21T06:46:30.935Z,8.76
2023-02-21T06:48:58.702Z,8.70
2023-02-21T06:51:31.984Z,8.68
2023-02-21T06:54:00.422Z,8.65
2023-02-21T06:56:29.040Z,8.70
2023-02-21T06:58:57.926Z,8.71
2023-02-21T07:01:28.237Z,8.63
2023-02-21T07:03:57.305Z,8.67
2023-02-21T07:06:25.101Z,8.71
2023-02-21T07:08:52.669Z,8.76
2023-02-21T07:11:21.028Z,8.76
2023-02-21T07:13:52.689Z,8.82
2023-02-21T07:16:21.278Z,8.72
2023-02-21T07:18:48.898Z,8.73
2023-02-21T07:21:17.893Z,8.73
2023-02-21T07:23:47.072Z,8.74
2023-02-21T07:26:15.505Z,8.74
2023-02-21T07:28:43.428Z,8.79
2023-02-21T07:31:14.592Z,8.84
2023-02-21T07:33:42.773Z,8.88
2023-02-21T07:36:10.395Z,8.89
2023-02-21T07:38:37.999Z,8.84
2023-02-21T07:41:05.682Z,8.93
2023-02-21T07:43:33.361Z,8.95
2023-02-21T07:46:00.957Z,9.02
2023-02-21T07:48:28.545Z,9.07
2023-02-21T07:50:56.267Z,9.10
2023-02-21T07:53:23.903Z,9.11
2023-02-21T07:55:51.478Z,9.05
2023-02-21T07:58:21.373Z,9.03
2023-02-21T08:00:49.340Z,9.09
2023-02-21T08:03:16.807Z,9.19
2023-02-21T08:05:46.115Z,9.25
2023-02-21T08:08:16.399Z,9.27
2023-02-21T08:10:44.019Z,9.23
2023-02-21T08:13:11.487Z,9.31
2023-02-21T08:15:39.595Z,9.29
2023-02-21T08:18:07.149Z,9.35
2023-02-21T08:20:35.292Z,9.45
2023-02-21T08:23:02.888Z,9.31
2023-02-21T08:25:30.581Z,9.36
2023-02-21T08:27:58.969Z,9.55
2023-02-21T08:30:26.899Z,9.55
2023-02-21T08:32:54.841Z,9.45
2023-02-21T08:35:22.583Z,9.35
2023-02-21T08:37:51.222Z,9.38
2023-02-21T08:40:21.661Z,9.37
2023-02-21T08:42:53.911Z,9.40
2023-02-21T08:45:23.571Z,9.52
2023-02-21T08:47:51.802Z,9.63
2023-02-21T08:50:20.990Z,9.56
2023-02-21T08:52:50.065Z,9.56
2023-02-21T08:55:19.784Z,9.60
2023-02-21T08:57:52.587Z,9.74
2023-02-21T09:00:23.561Z,9.84
2023-02-21T09:02:52.252Z,9.82
2023-02-21T09:05:24.774Z,9.90
2023-02-21T09:07:55.361Z,9.91
2023-02-21T09:10:23.110Z,10.04
2023-02-21T09:12:50.633Z,10.06
2023-02-21T09:15:18.433Z,10.18
2023-02-21T09:17:45.988Z,10.32
2023-02-21T09:20:19.215Z,10.37
2023-02-21T09:22:47.602Z,10.36
2023-02-21T09:25:19.940Z,10.53
2023-02-21T09:27:47.476Z,10.62
2023-02-21T09:30:18.859Z,10.65
2023-02-21T09:32:47.523Z,10.54
2023-02-21T09:35:15.761Z,10.70
2023-02-21T09:37:44.996Z,10.47
2023-02-21T09:40:24.068Z,10.39
2023-02-21T09:42:55.084Z,10.47
2023-02-21T09:45:25.210Z,10.58
2023-02-21T09:47:56.598Z,10.67
2023-02-21T09:50:30.597Z,10.62
2023-02-21T09:52:59.085Z,10.96
2023-02-21T09:55:37.835Z,11.16
2023-02-21T09:58:14.131Z,11.10
2023-02-21T10:00:45.447Z,11.05
2023-02-21T10:03:44.407Z,11.29
2023-02-21T10:06:24.344Z,11.25
2023-02-21T10:09:20.831Z,11.22
2023-02-21T10:11:54.453Z,11.14
2023-02-21T10:15:00.330Z,11.10
2023-02-21T10:17:39.780Z,11.09
2023-02-21T10:20:15.052Z,11.01
2023-02-21T10:22:48.023Z,10.83
2023-02-21T10:25:28.935Z,10.91
2023-02-21T10:27:58.952Z,10.92
2023-02-21T10:30:38.168Z,10.76
2023-02-21T10:33:06.768Z,10.85
2023-02-21T10:35:36.288Z,11.06
2023-02-21T10:38:08.014Z,11.03
2023-02-21T10:40:38.614Z,11.10
2023-02-21T10:43:35.934Z,10.89
2023-02-21T10:46:14.699Z,10.74
2023-02-21T10:48:44.628Z,10.62
2023-02-21T10:51:15.529Z,10.58
2023-02-21T10:53:45.925Z,10.74
2023-02-21T10:56:16.778Z,10.82
2023-02-21T10:59:05.666Z,10.89
2023-02-21T11:01:36.834Z,10.78
2023-02-21T11:04:20.009Z,10.73
2023-02-21T11:06:49.617Z,10.83
2023-02-21T11:09:35.336Z,10.86
2023-02-21T11:12:19.969Z,11.02
2023-02-21T11:14:53.385Z,11.03
2023-02-21T11:17:26.346Z,10.92
2023-02-21T11:19:53.968Z,10.89
2023-02-21T11:22:42.914Z,10.80
2023-02-21T11:25:30.514Z,10.91
2023-02-21T11:28:20.736Z,10.90
2023-02-21T11:30:59.432Z,10.83
2023-02-21T11:33:28.173Z,10.93
2023-02-21T11:36:10.735Z,10.79
2023-02-21T11:38:41.583Z,10.91
2023-02-21T11:41:21.049Z,10.95
2023-02-21T11:43:53.279Z,11.03
2023-02-21T11:46:23.764Z,11.00
2023-02-21T11:49:12.274Z,11.05
2023-02-21T11:51:46.229Z,11.14
2023-02-21T11:54:14.225Z,11.37
2023-02-21T11:56:51.254Z,11.56
2023-02-21T11:59:30.882Z,11.77
2023-02-21T12:02:12.575Z,11.75
2023-02-21T12:05:15.620Z,11.75
2023-02-21T12:08:15.273Z,12.25
2023-02-21T12:10:57.603Z,12.51
2023-02-21T12:13:57.679Z,12.80
2023-02-21T12:16:46.454Z,12.67
2023-02-21T12:19:29.133Z,12.32
2023-02-21T12:21:59.622Z,12.07
2023-02-21T12:24:56.223Z,11.93
2023-02-21T12:27:33.804Z,11.75
2023-02-21T12:30:27.586Z,11.57
2023-02-21T12:33:14.535Z,11.61
2023-02-21T12:36:13.971Z,11.39
2023-02-21T12:38:54.842Z,11.31
2023-02-21T12:42:09.817Z,11.09
2023-02-21T12:44:55.243Z,11.05
2023-02-21T12:47:34.678Z,10.97
2023-02-21T12:50:04.923Z,10.89
2023-02-21T12:52:58.481Z,10.83
2023-02-21T12:55:29.601Z,10.77
2023-02-21T12:58:06.320Z,10.68
2023-02-21T13:00:57.299Z,10.77
2023-02-21T13:04:01.897Z,10.70
2023-02-21T13:06:35.612Z,10.56
2023-02-21T13:09:06.211Z,10.31
2023-02-21T13:11:33.682Z,10.18
2023-02-21T13:14:02.174Z,10.16
2023-02-21T13:16:31.726Z,10.19
2023-02-21T13:19:07.173Z,10.19
2023-02-21T13:21:53.166Z,10.45
2023-02-21T13:24:51.958Z,10.67
2023-02-21T13:27:55.632Z,10.78
2023-02-21T13:30:40.508Z,10.89
2023-02-21T13:33:25.716Z,10.93
2023-02-21T13:35:54.313Z,10.79
2023-02-21T13:38:22.213Z,10.87
2023-02-21T13:41:03.548Z,10.94
2023-02-21T13:43:35.221Z,10.97
2023-02-21T13:46:30.665Z,11.03
2023-02-21T13:49:35.484Z,10.68
2023-02-21T13:52:23.962Z,10.75
2023-02-21T13:55:15.220Z,10.59
2023-02-21T13:57:49.412Z,10.57
2023-02-21T14:00:25.898Z,10.56
2023-02-21T14:03:03.168Z,10.50
2023-02-21T14:05:50.240Z,10.46
2023-02-21T14:08:38.194Z,10.57
2023-02-21T14:11:05.700Z,10.54
2023-02-21T14:14:07.397Z,10.54
2023-02-21T14:16:48.756Z,10.52
2023-02-21T14:19:26.762Z,10.33
2023-02-21T14:22:03.542Z,10.31
2023-02-21T14:24:40.665Z,10.28
2023-02-21T14:30:06.731Z,10.14
2023-02-21T14:32:35.779Z,10.09
2023-02-21T14:35:23.196Z,10.09
2023-02-21T14:37:59.669Z,10.09
2023-02-21T14:40:39.276Z,10.11
2023-02-21T14:43:24.906Z,10.13
2023-02-21T14:46:10.538Z,9.99
2023-02-21T14:48:59.396Z,10.00
2023-02-21T14:51:45.506Z,10.04
2023-02-21T14:54:37.579Z,10.06
2023-02-21T14:57:23.525Z,10.09
2023-02-21T14:59:53.958Z,9.99
2023-02-21T15:02:54.647Z,9.93
2023-02-21T15:05:38.374Z,10.02
2023-02-21T15:08:24.066Z,9.99
2023-02-21T15:10:58.060Z,9.99
2023-02-21T15:13:27.221Z,9.99
2023-02-21T15:16:00.675Z,9.98
2023-02-21T15:18:36.236Z,9.96
2023-02-21T15:21:12.632Z,9.85
2023-02-21T15:23:43.123Z,9.95
2023-02-21T15:26:22.763Z,9.95
2023-02-21T15:29:18.214Z,9.90
2023-02-21T15:31:56.622Z,9.81
2023-02-21T15:34:47.218Z,9.88
2023-02-21T15:37:23.111Z,9.87
2023-02-21T15:40:05.779Z,9.88
2023-02-21T15:42:35.492Z,9.86
2023-02-21T15:45:07.785Z,9.85
2023-02-21T15:47:36.415Z,9.85
2023-02-21T15:50:16.912Z,9.80
2023-02-21T15:52:48.941Z,9.74
2023-02-21T15:55:16.582Z,9.76
2023-02-21T15:57:44.768Z,9.79
2023-02-21T16:00:26.756Z,9.69
2023-02-21T16:03:31.500Z,9.71
2023-02-21T16:06:34.429Z,9.75
2023-02-21T16:09:19.490Z,9.75
2023-02-21T16:11:51.142Z,9.71
2023-02-21T16:14:23.626Z,9.66
2023-02-21T16:17:08.440Z,9.61
2023-02-21T16:19:36.711Z,9.63
2023-02-21T16:22:23.864Z,9.64
2023-02-21T16:25:19.706Z,9.67
2023-02-21T16:28:00.577Z,9.61
2023-02-21T16:30:31.207Z,9.64
2023-02-21T16:33:04.911Z,9.57
2023-02-21T16:35:33.648Z,9.61
2023-02-21T16:38:01.946Z,9.52
2023-02-21T16:40:33.950Z,9.54
2023-02-21T16:43:03.959Z,9.52
2023-02-21T16:45:32.434Z,9.54
2023-02-21T16:48:02.693Z,9.55
2023-02-21T16:50:40.242Z,9.59
2023-02-21T16:53:12.734Z,9.54
2023-02-21T16:55:40.894Z,9.59
2023-02-21T16:58:20.805Z,9.49
2023-02-21T17:00:48.530Z,9.54
2023-02-21T17:03:16.125Z,9.57
2023-02-21T17:05:43.684Z,9.60
2023-02-21T17:08:11.720Z,9.58
2023-02-21T17:10:39.315Z,9.53
2023-02-21T17:13:06.978Z,9.49
2023-02-21T17:15:34.703Z,9.52
2023-02-21T17:18:03.125Z,9.47
2023-02-21T17:20:30.944Z,9.43
2023-02-21T17:22:58.864Z,9.40
2023-02-21T17:25:26.904Z,9.39
2023-02-21T17:27:54.771Z,9.36
2023-02-21T17:30:24.748Z,9.37
2023-02-21T17:32:52.754Z,9.38
2023-02-21T17:35:22.636Z,9.45
2023-02-21T17:37:51.671Z,9.36
2023-02-21T17:40:21.781Z,9.29
2023-02-21T17:42:49.582Z,9.32
2023-02-21T17:45:19.430Z,9.30
2023-02-21T17:47:48.698Z,9.31
2023-02-21T17:50:17.796Z,9.30
2023-02-21T17:52:45.634Z,9.29
2023-02-21T17:55:20.851Z,9.33
2023-02-21T17:57:48.473Z,9.31
2023-02-21T18:00:21.993Z,9.33
2023-02-21T18:02:49.590Z,9.30
2023-02-21T18:05:18.650Z,9.28
2023-02-21T18:07:50.832Z,9.28
2023-02-21T18:10:21.514Z,9.29
2023-02-21T18:12:51.287Z,9.24
2023-02-21T18:15:27.713Z,9.21
2023-02-21T18:17:55.995Z,9.16
2023-02-21T18:20:24.958Z,9.15
2023-02-21T18:22:52.627Z,9.13
2023-02-21T18:25:22.121Z,9.15
2023-02-21T18:27:50.173Z,9.16
2023-02-21T18:30:18.929Z,9.06
2023-02-21T18:32:46.982Z,9.12
2023-02-21T18:35:18.158Z,9.08
2023-02-21T18:37:48.945Z,9.13
2023-02-21T18:40:18.662Z,9.11
2023-02-21T18:42:47.854Z,9.11
2023-02-21T18:45:15.793Z,9.10
2023-02-21T18:47:43.503Z,9.09
2023-02-21T18:50:11.200Z,9.09
2023-02-21T18:52:38.831Z,9.06
2023-02-21T18:55:06.841Z,9.03
2023-02-21T18:57:34.675Z,9.04
2023-02-21T19:00:05.752Z,9.10
2023-02-21T19:02:34.626Z,9.02
2023-02-21T19:05:02.155Z,9.00
2023-02-21T19:07:32.100Z,9.01
2023-02-21T19:09:59.669Z,9.00
2023-02-21T19:12:27.206Z,8.98
2023-02-21T19:14:54.809Z,8.96
2023-02-21T19:17:22.450Z,8.95
2023-02-21T19:19:50.022Z,8.91
2023-02-21T19:22:17.771Z,8.93
2023-02-21T19:24:45.474Z,8.93
2023-02-21T19:27:13.117Z,8.96
2023-02-21T19:29:42.158Z,8.94
2023-02-21T19:32:10.175Z,8.87
2023-02-21T19:34:37.809Z,8.90
2023-02-21T19:37:05.539Z,8.88
2023-02-21T19:39:33.237Z,8.90
2023-02-21T19:42:00.809Z,8.89
2023-02-21T19:44:29.468Z,8.84
2023-02-21T19:46:57.268Z,8.80
2023-02-21T19:49:25.009Z,8.79
2023-02-21T19:51:53.967Z,8.79
2023-02-21T19:54:30.106Z,8.80
2023-02-21T19:56:58.825Z,8.80
2023-02-21T19:59:27.135Z,8.78
2023-02-21T20:01:55.519Z,8.80
2023-02-21T20:04:23.979Z,8.72
2023-02-21T20:06:52.030Z,8.77
2023-02-21T20:09:19.712Z,8.78
2023-02-21T20:11:47.736Z,8.75
2023-02-21T20:14:17.735Z,8.78
2023-02-21T20:16:46.649Z,8.80
2023-02-21T20:19:15.335Z,8.76
2023-02-21T20:21:42.953Z,8.79
2023-02-21T20:24:11.088Z,8.77
2023-02-21T20:26:39.713Z,8.78
2023-02-21T20:29:07.388Z,8.76
2023-02-21T20:31:37.736Z,8.75
2023-02-21T20:34:07.077Z,8.72
2023-02-21T20:36:38.276Z,8.69
2023-02-21T20:39:08.019Z,8.68
2023-02-21T20:41:39.721Z,8.65
2023-02-21T20:44:07.522Z,8.62
2023-02-21T20:46:37.226Z,8.65
2023-02-21T20:49:07.660Z,8.65
2023-02-21T20:51:39.004Z,8.63
2023-02-21T20:54:07.888Z,8.64
2023-02-21T20:56:39.621Z,8.61
2023-02-21T20:59:10.178Z,8.62
2023-02-21T21:01:37.824Z,8.61
2023-02-21T21:04:08.428Z,8.61
2023-02-21T21:06:36.824Z,8.57
2023-02-21T21:09:04.760Z,8.54
2023-02-21T21:11:32.876Z,8.51
2023-02-21T21:14:02.963Z,8.50
2023-02-21T21:16:30.728Z,8.50
2023-02-21T21:18:59.208Z,8.56
2023-02-21T21:21:32.081Z,8.50
2023-02-21T21:24:00.654Z,8.50
2023-02-21T21:26:28.329Z,8.47
2023-02-21T21:28:56.017Z,8.46
2023-02-21T21:31:23.809Z,8.43
2023-02-21T21:33:51.437Z,8.42
2023-02-21T21:36:19.438Z,8.39
2023-02-21T21:38:47.220Z,8.38
2023-02-21T21:41:15.576Z,8.39
2023-02-21T21:43:45.685Z,8.40
2023-02-21T21:46:14.246Z,8.38
2023-02-21T21:48:43.919Z,8.42
2023-02-21T21:51:14.469Z,8.39
2023-02-21T21:53:42.695Z,8.39
2023-02-21T21:56:11.435Z,8.35
2023-02-21T21:58:39.855Z,8.42
2023-02-21T22:01:07.465Z,8.37
2023-02-21T22:03:35.107Z,8.37
2023-02-21T22:06:02.710Z,8.37
2023-02-21T22:08:31.438Z,8.34
2023-02-21T22:11:00.321Z,8.30
2023-02-21T22:13:33.974Z,8.31
2023-02-21T22:16:02.929Z,8.34
2023-02-21T22:18:30.777Z,8.34
2023-02-21T22:20:59.258Z,8.36
2023-02-21T22:23:27.267Z,8.33
2023-02-21T22:25:57.290Z,8.30
2023-02-21T22:28:24.926Z,8.27
2023-02-21T22:30:52.487Z,8.20
2023-02-21T22:33:21.860Z,8.23
2023-02-21T22:35:50.952Z,8.20
2023-02-21T22:38:19.282Z,8.25
2023-02-21T22:40:47.124Z,8.26
2023-02-21T22:43:15.175Z,8.24
2023-02-21T22:45:49.908Z,8.24
2023-02-21T22:48:20.580Z,8.18
2023-02-21T22:50:48.612Z,8.20
2023-02-21T22:53:19.107Z,8.20
2023-02-21T22:55:51.778Z,8.19
2023-02-21T22:58:20.650Z,8.17
2023-02-21T23:00:49.699Z,8.20
2023-02-21T23:03:18.167Z,8.17
2023-02-21T23:05:50.860Z,8.15
2023-02-21T23:08:20.940Z,8.13
2023-02-21T23:10:49.361Z,8.14
2023-02-21T23:13:20.069Z,8.16
2023-02-21T23:15:48.407Z,8.19
2023-02-21T23:18:20.787Z,8.19
2023-02-21T23:20:53.089Z,8.17
2023-02-21T23:23:27.927Z,8.19
2023-02-21T23:25:59.125Z,8.16
2023-02-21T23:28:31.782Z,8.16
2023-02-21T23:30:59.449Z,8.14
2023-02-21T23:33:34.188Z,8.13
2023-02-21T23:36:04.852Z,8.12
2023-02-21T23:38:38.518Z,8.11
2023-02-21T23:41:10.395Z,8.11
2023-02-21T23:43:38.059Z,8.09
2023-02-21T23:46:07.253Z,8.05
2023-02-21T23:48:35.302Z,8.04
2023-02-21T23:51:02.928Z,8.06
2023-02-21T23:53:31.945Z,8.03
2023-02-21T23:56:00.949Z,7.99
2023-02-21T23:58:33.539Z,7.97
